sensor_id;sensor_type;location;lat;lon;timestamp;temperature;humidity
24146;DHT22;12308;50.948;4.706;2023-07-29T00:00:37;21.60;99.90
24146;DHT22;12308;50.948;4.706;2023-07-29T00:03:03;21.60;99.90
24146;DHT22;12308;50.948;4.706;2023-07-29T00:05:29;21.60;99.90
24146;DHT22;12308;50.948;4.706;2023-07-29T00:07:54;21.70;99.90
24146;DHT22;12308;50.948;4.706;2023-07-29T00:10:20;21.70;99.90
24146;DHT22;12308;50.948;4.706;2023-07-29T00:12:45;21.60;99.90
24146;DHT22;12308;50.948;4.706;2023-07-29T00:15:11;21.50;99.90
24146;DHT22;12308;50.948;4.706;2023-07-29T00:17:37;21.40;99.90
24146;DHT22;12308;50.948;4.706;2023-07-29T00:20:03;21.40;99.90
24146;DHT22;12308;50.948;4.706;2023-07-29T00:22:28;21.30;99.90
24146;DHT22;12308;50.948;4.706;2023-07-29T00:24:54;21.30;99.90
24146;DHT22;12308;50.948;4.706;2023-07-29T00:27:21;21.10;99.90
24146;DHT22;12308;50.948;4.706;2023-07-29T00:29:46;21.10;99.90
24146;DHT22;12308;50.948;4.706;2023-07-29T00:32:12;21.10;99.90
24146;DHT22;12308;50.948;4.706;2023-07-29T00:34:38;21.10;99.90
24146;DHT22;12308;50.948;4.706;2023-07-29T00:37:04;21.20;99.90
24146;DHT22;12308;50.948;4.706;2023-07-29T00:39:31;21.10;99.90
24146;DHT22;12308;50.948;4.706;2023-07-29T00:41:57;21.00;99.90
24146;DHT22;12308;50.948;4.706;2023-07-29T00:44:23;21.00;99.90
24146;DHT22;12308;50.948;4.706;2023-07-29T00:46:51;21.10;99.90
24146;DHT22;12308;50.948;4.706;2023-07-29T00:49:18;20.90;99.90
24146;DHT22;12308;50.948;4.706;2023-07-29T00:51:43;20.60;99.90
24146;DHT22;12308;50.948;4.706;2023-07-29T00:54:09;20.50;99.90
24146;DHT22;12308;50.948;4.706;2023-07-29T00:56:35;20.40;99.90
24146;DHT22;12308;50.948;4.706;2023-07-29T00:59:02;20.30;99.90
24146;DHT22;12308;50.948;4.706;2023-07-29T01:01:28;20.20;99.90
24146;DHT22;12308;50.948;4.706;2023-07-29T01:03:54;20.30;99.90
24146;DHT22;12308;50.948;4.706;2023-07-29T01:09:21;20.10;99.90
24146;DHT22;12308;50.948;4.706;2023-07-29T01:12:06;20.10;99.90
24146;DHT22;12308;50.948;4.706;2023-07-29T01:17:33;19.90;99.90
24146;DHT22;12308;50.948;4.706;2023-07-29T01:22:25;20.00;99.90
24146;DHT22;12308;50.948;4.706;2023-07-29T01:24:51;19.90;99.90
24146;DHT22;12308;50.948;4.706;2023-07-29T01:27:16;19.90;99.90
24146;DHT22;12308;50.948;4.706;2023-07-29T01:29:42;19.90;99.90
24146;DHT22;12308;50.948;4.706;2023-07-29T01:32:16;20.00;99.90
24146;DHT22;12308;50.948;4.706;2023-07-29T01:34:56;19.80;99.90
24146;DHT22;12308;50.948;4.706;2023-07-29T01:37:26;19.90;99.90
24146;DHT22;12308;50.948;4.706;2023-07-29T01:39:55;19.80;99.90
24146;DHT22;12308;50.948;4.706;2023-07-29T01:42:22;19.90;99.90
24146;DHT22;12308;50.948;4.706;2023-07-29T01:44:48;19.80;99.90
24146;DHT22;12308;50.948;4.706;2023-07-29T01:47:13;19.80;99.90
24146;DHT22;12308;50.948;4.706;2023-07-29T01:49:39;19.70;99.90
24146;DHT22;12308;50.948;4.706;2023-07-29T01:52:05;19.80;99.90
24146;DHT22;12308;50.948;4.706;2023-07-29T01:54:31;19.70;99.90
24146;DHT22;12308;50.948;4.706;2023-07-29T01:56:56;19.80;99.90
24146;DHT22;12308;50.948;4.706;2023-07-29T01:59:22;19.70;99.90
24146;DHT22;12308;50.948;4.706;2023-07-29T02:01:47;19.60;99.90
24146;DHT22;12308;50.948;4.706;2023-07-29T02:04:14;19.50;99.90
24146;DHT22;12308;50.948;4.706;2023-07-29T02:06:40;19.60;99.90
24146;DHT22;12308;50.948;4.706;2023-07-29T02:09:05;19.70;99.90
24146;DHT22;12308;50.948;4.706;2023-07-29T02:11:31;19.80;99.90
24146;DHT22;12308;50.948;4.706;2023-07-29T02:13:57;19.70;99.90
24146;DHT22;12308;50.948;4.706;2023-07-29T02:16:23;19.60;99.90
24146;DHT22;12308;50.948;4.706;2023-07-29T02:18:49;19.40;99.90
24146;DHT22;12308;50.948;4.706;2023-07-29T02:21:16;19.50;99.90
24146;DHT22;12308;50.948;4.706;2023-07-29T02:23:42;19.40;99.90
24146;DHT22;12308;50.948;4.706;2023-07-29T02:26:07;19.50;99.90
24146;DHT22;12308;50.948;4.706;2023-07-29T02:28:33;19.50;99.90
24146;DHT22;12308;50.948;4.706;2023-07-29T02:33:42;19.50;99.90
24146;DHT22;12308;50.948;4.706;2023-07-29T02:36:08;19.50;99.90
24146;DHT22;12308;50.948;4.706;2023-07-29T02:38:34;19.50;99.90
24146;DHT22;12308;50.948;4.706;2023-07-29T02:41:00;19.40;99.90
24146;DHT22;12308;50.948;4.706;2023-07-29T02:43:26;19.40;99.90
24146;DHT22;12308;50.948;4.706;2023-07-29T02:45:51;19.40;99.90
24146;DHT22;12308;50.948;4.706;2023-07-29T02:48:17;19.40;99.90
24146;DHT22;12308;50.948;4.706;2023-07-29T02:50:42;19.40;99.90
24146;DHT22;12308;50.948;4.706;2023-07-29T02:53:08;19.30;99.90
24146;DHT22;12308;50.948;4.706;2023-07-29T02:55:34;19.30;99.90
24146;DHT22;12308;50.948;4.706;2023-07-29T02:57:59;19.30;99.90
24146;DHT22;12308;50.948;4.706;2023-07-29T03:00:25;19.30;99.90
24146;DHT22;12308;50.948;4.706;2023-07-29T03:02:51;19.30;99.90
24146;DHT22;12308;50.948;4.706;2023-07-29T03:05:17;19.30;99.90
24146;DHT22;12308;50.948;4.706;2023-07-29T03:07:42;19.40;99.90
24146;DHT22;12308;50.948;4.706;2023-07-29T03:10:09;19.40;99.90
24146;DHT22;12308;50.948;4.706;2023-07-29T03:12:36;19.40;99.90
24146;DHT22;12308;50.948;4.706;2023-07-29T03:15:02;19.30;99.90
24146;DHT22;12308;50.948;4.706;2023-07-29T03:17:28;19.20;99.90
24146;DHT22;12308;50.948;4.706;2023-07-29T03:19:54;19.30;99.90
24146;DHT22;12308;50.948;4.706;2023-07-29T03:22:20;19.10;99.90
24146;DHT22;12308;50.948;4.706;2023-07-29T03:24:45;19.10;99.90
24146;DHT22;12308;50.948;4.706;2023-07-29T03:27:11;19.10;99.90
24146;DHT22;12308;50.948;4.706;2023-07-29T03:29:37;19.10;99.90
24146;DHT22;12308;50.948;4.706;2023-07-29T03:32:02;19.10;99.90
24146;DHT22;12308;50.948;4.706;2023-07-29T03:34:28;19.10;99.90
24146;DHT22;12308;50.948;4.706;2023-07-29T03:36:54;19.10;99.90
24146;DHT22;12308;50.948;4.706;2023-07-29T03:39:19;19.10;99.90
24146;DHT22;12308;50.948;4.706;2023-07-29T03:41:45;19.10;99.90
24146;DHT22;12308;50.948;4.706;2023-07-29T03:44:11;19.10;99.90
24146;DHT22;12308;50.948;4.706;2023-07-29T03:46:36;19.00;99.90
24146;DHT22;12308;50.948;4.706;2023-07-29T03:49:02;19.00;99.90
24146;DHT22;12308;50.948;4.706;2023-07-29T03:51:28;18.90;99.90
24146;DHT22;12308;50.948;4.706;2023-07-29T03:53:54;18.90;99.90
24146;DHT22;12308;50.948;4.706;2023-07-29T03:56:20;19.00;99.90
24146;DHT22;12308;50.948;4.706;2023-07-29T03:58:46;19.10;99.90
24146;DHT22;12308;50.948;4.706;2023-07-29T04:01:13;19.10;99.90
24146;DHT22;12308;50.948;4.706;2023-07-29T04:03:39;19.00;99.90
24146;DHT22;12308;50.948;4.706;2023-07-29T04:06:05;18.90;99.90
24146;DHT22;12308;50.948;4.706;2023-07-29T04:08:30;19.00;99.90
24146;DHT22;12308;50.948;4.706;2023-07-29T04:10:56;19.10;99.90
24146;DHT22;12308;50.948;4.706;2023-07-29T04:13:22;19.10;99.90
24146;DHT22;12308;50.948;4.706;2023-07-29T04:15:48;19.20;99.90
24146;DHT22;12308;50.948;4.706;2023-07-29T04:18:13;19.20;99.90
24146;DHT22;12308;50.948;4.706;2023-07-29T04:20:39;19.20;99.90
24146;DHT22;12308;50.948;4.706;2023-07-29T04:23:05;19.20;99.90
24146;DHT22;12308;50.948;4.706;2023-07-29T04:25:30;19.10;99.90
24146;DHT22;12308;50.948;4.706;2023-07-29T04:27:56;19.10;99.90
24146;DHT22;12308;50.948;4.706;2023-07-29T04:30:23;18.90;99.90
24146;DHT22;12308;50.948;4.706;2023-07-29T04:32:48;19.00;99.90
24146;DHT22;12308;50.948;4.706;2023-07-29T04:35:14;19.00;99.90
24146;DHT22;12308;50.948;4.706;2023-07-29T04:37:40;19.10;99.90
24146;DHT22;12308;50.948;4.706;2023-07-29T04:40:06;18.90;99.90
24146;DHT22;12308;50.948;4.706;2023-07-29T04:42:32;18.90;99.90
24146;DHT22;12308;50.948;4.706;2023-07-29T04:44:58;18.80;99.90
24146;DHT22;12308;50.948;4.706;2023-07-29T04:47:23;19.00;99.90
24146;DHT22;12308;50.948;4.706;2023-07-29T04:49:49;18.90;99.90
24146;DHT22;12308;50.948;4.706;2023-07-29T04:52:15;19.00;99.90
24146;DHT22;12308;50.948;4.706;2023-07-29T04:54:41;19.10;99.90
24146;DHT22;12308;50.948;4.706;2023-07-29T04:57:06;19.10;99.90
24146;DHT22;12308;50.948;4.706;2023-07-29T04:59:32;19.10;99.90
24146;DHT22;12308;50.948;4.706;2023-07-29T05:01:58;19.20;99.90
24146;DHT22;12308;50.948;4.706;2023-07-29T05:04:23;19.20;99.90
24146;DHT22;12308;50.948;4.706;2023-07-29T05:06:49;19.30;99.90
24146;DHT22;12308;50.948;4.706;2023-07-29T05:09:16;19.40;99.90
24146;DHT22;12308;50.948;4.706;2023-07-29T05:11:43;19.30;99.90
24146;DHT22;12308;50.948;4.706;2023-07-29T05:14:17;19.20;99.90
24146;DHT22;12308;50.948;4.706;2023-07-29T05:16:43;19.20;99.90
24146;DHT22;12308;50.948;4.706;2023-07-29T05:19:09;19.10;99.90
24146;DHT22;12308;50.948;4.706;2023-07-29T05:21:35;19.20;99.90
24146;DHT22;12308;50.948;4.706;2023-07-29T05:24:01;19.40;99.90
24146;DHT22;12308;50.948;4.706;2023-07-29T05:26:26;19.60;99.90
24146;DHT22;12308;50.948;4.706;2023-07-29T05:28:52;19.70;99.90
24146;DHT22;12308;50.948;4.706;2023-07-29T05:31:18;19.70;99.90
24146;DHT22;12308;50.948;4.706;2023-07-29T05:33:43;19.80;99.90
24146;DHT22;12308;50.948;4.706;2023-07-29T05:36:09;19.90;99.90
24146;DHT22;12308;50.948;4.706;2023-07-29T05:38:34;19.90;99.90
24146;DHT22;12308;50.948;4.706;2023-07-29T05:41:00;19.90;99.90
24146;DHT22;12308;50.948;4.706;2023-07-29T05:43:26;20.00;99.90
24146;DHT22;12308;50.948;4.706;2023-07-29T05:45:52;20.00;99.90
24146;DHT22;12308;50.948;4.706;2023-07-29T05:48:19;20.10;99.90
24146;DHT22;12308;50.948;4.706;2023-07-29T05:50:45;19.90;99.90
24146;DHT22;12308;50.948;4.706;2023-07-29T05:53:11;20.00;99.90
24146;DHT22;12308;50.948;4.706;2023-07-29T05:55:36;20.00;99.90
24146;DHT22;12308;50.948;4.706;2023-07-29T05:58:02;20.20;99.90
24146;DHT22;12308;50.948;4.706;2023-07-29T06:00:28;20.50;99.90
24146;DHT22;12308;50.948;4.706;2023-07-29T06:02:53;20.70;99.90
24146;DHT22;12308;50.948;4.706;2023-07-29T06:05:19;20.70;99.90
24146;DHT22;12308;50.948;4.706;2023-07-29T06:07:45;20.70;99.90
24146;DHT22;12308;50.948;4.706;2023-07-29T06:10:14;20.70;99.90
24146;DHT22;12308;50.948;4.706;2023-07-29T06:12:44;20.70;99.90
24146;DHT22;12308;50.948;4.706;2023-07-29T06:15:10;20.80;99.90
24146;DHT22;12308;50.948;4.706;2023-07-29T06:17:35;20.80;99.90
24146;DHT22;12308;50.948;4.706;2023-07-29T06:20:01;20.90;99.90
24146;DHT22;12308;50.948;4.706;2023-07-29T06:22:28;21.00;99.90
24146;DHT22;12308;50.948;4.706;2023-07-29T06:24:53;20.90;99.90
24146;DHT22;12308;50.948;4.706;2023-07-29T06:27:19;21.00;99.90
24146;DHT22;12308;50.948;4.706;2023-07-29T06:29:44;21.10;99.90
24146;DHT22;12308;50.948;4.706;2023-07-29T06:32:10;21.00;99.90
24146;DHT22;12308;50.948;4.706;2023-07-29T06:34:36;21.20;99.90
24146;DHT22;12308;50.948;4.706;2023-07-29T06:37:02;21.40;99.90
24146;DHT22;12308;50.948;4.706;2023-07-29T06:39:28;21.60;99.90
24146;DHT22;12308;50.948;4.706;2023-07-29T06:41:53;21.70;99.90
24146;DHT22;12308;50.948;4.706;2023-07-29T06:44:19;21.70;99.90
24146;DHT22;12308;50.948;4.706;2023-07-29T06:46:45;21.60;99.90
24146;DHT22;12308;50.948;4.706;2023-07-29T06:49:10;21.40;99.90
24146;DHT22;12308;50.948;4.706;2023-07-29T06:51:36;21.40;99.90
24146;DHT22;12308;50.948;4.706;2023-07-29T06:54:02;21.50;99.90
24146;DHT22;12308;50.948;4.706;2023-07-29T06:56:28;21.80;99.90
24146;DHT22;12308;50.948;4.706;2023-07-29T06:58:54;21.90;99.90
24146;DHT22;12308;50.948;4.706;2023-07-29T07:01:19;21.90;99.90
24146;DHT22;12308;50.948;4.706;2023-07-29T07:03:45;22.30;99.90
24146;DHT22;12308;50.948;4.706;2023-07-29T07:06:11;22.60;99.90
24146;DHT22;12308;50.948;4.706;2023-07-29T07:08:36;22.90;99.90
24146;DHT22;12308;50.948;4.706;2023-07-29T07:11:02;23.00;99.90
24146;DHT22;12308;50.948;4.706;2023-07-29T07:13:28;23.00;99.90
24146;DHT22;12308;50.948;4.706;2023-07-29T07:15:55;23.10;99.90
24146;DHT22;12308;50.948;4.706;2023-07-29T07:18:20;23.10;99.90
24146;DHT22;12308;50.948;4.706;2023-07-29T07:20:51;22.70;99.90
24146;DHT22;12308;50.948;4.706;2023-07-29T07:23:18;22.70;99.90
24146;DHT22;12308;50.948;4.706;2023-07-29T07:25:43;22.60;99.90
24146;DHT22;12308;50.948;4.706;2023-07-29T07:28:10;22.50;99.90
24146;DHT22;12308;50.948;4.706;2023-07-29T07:30:39;22.50;99.90
24146;DHT22;12308;50.948;4.706;2023-07-29T07:33:06;22.50;99.90
24146;DHT22;12308;50.948;4.706;2023-07-29T07:35:32;22.40;99.90
24146;DHT22;12308;50.948;4.706;2023-07-29T07:37:57;22.30;99.90
24146;DHT22;12308;50.948;4.706;2023-07-29T07:40:25;22.50;99.90
24146;DHT22;12308;50.948;4.706;2023-07-29T07:42:50;22.50;99.90
24146;DHT22;12308;50.948;4.706;2023-07-29T07:45:16;22.50;99.90
24146;DHT22;12308;50.948;4.706;2023-07-29T07:47:43;22.40;99.90
24146;DHT22;12308;50.948;4.706;2023-07-29T07:50:09;22.20;99.90
24146;DHT22;12308;50.948;4.706;2023-07-29T07:52:34;22.10;99.90
24146;DHT22;12308;50.948;4.706;2023-07-29T07:55:00;22.00;99.90
24146;DHT22;12308;50.948;4.706;2023-07-29T07:57:26;21.90;99.90
24146;DHT22;12308;50.948;4.706;2023-07-29T07:59:51;21.80;99.90
24146;DHT22;12308;50.948;4.706;2023-07-29T08:02:18;21.60;99.90
24146;DHT22;12308;50.948;4.706;2023-07-29T08:04:44;21.80;99.90
24146;DHT22;12308;50.948;4.706;2023-07-29T08:07:09;22.10;99.90
24146;DHT22;12308;50.948;4.706;2023-07-29T08:09:35;22.40;99.90
24146;DHT22;12308;50.948;4.706;2023-07-29T08:12:01;22.80;99.90
24146;DHT22;12308;50.948;4.706;2023-07-29T08:14:26;23.00;99.90
24146;DHT22;12308;50.948;4.706;2023-07-29T08:16:52;23.20;99.90
24146;DHT22;12308;50.948;4.706;2023-07-29T08:19:18;23.20;99.90
24146;DHT22;12308;50.948;4.706;2023-07-29T08:21:43;23.20;99.90
24146;DHT22;12308;50.948;4.706;2023-07-29T08:24:09;23.60;99.90
24146;DHT22;12308;50.948;4.706;2023-07-29T08:26:35;23.50;99.90
24146;DHT22;12308;50.948;4.706;2023-07-29T08:29:00;23.20;99.90
24146;DHT22;12308;50.948;4.706;2023-07-29T08:31:26;23.10;99.90
24146;DHT22;12308;50.948;4.706;2023-07-29T08:33:52;23.10;99.90
24146;DHT22;12308;50.948;4.706;2023-07-29T08:36:17;23.10;99.90
24146;DHT22;12308;50.948;4.706;2023-07-29T08:38:43;23.00;99.90
24146;DHT22;12308;50.948;4.706;2023-07-29T08:41:19;23.00;99.90
24146;DHT22;12308;50.948;4.706;2023-07-29T08:44:07;23.10;99.90
24146;DHT22;12308;50.948;4.706;2023-07-29T08:46:34;23.20;99.90
24146;DHT22;12308;50.948;4.706;2023-07-29T08:49:01;23.30;99.90
24146;DHT22;12308;50.948;4.706;2023-07-29T08:51:27;23.40;99.90
24146;DHT22;12308;50.948;4.706;2023-07-29T08:53:55;23.50;99.90
24146;DHT22;12308;50.948;4.706;2023-07-29T08:56:21;23.90;99.90
24146;DHT22;12308;50.948;4.706;2023-07-29T08:58:47;23.90;99.90
24146;DHT22;12308;50.948;4.706;2023-07-29T09:01:14;23.80;99.90
24146;DHT22;12308;50.948;4.706;2023-07-29T09:03:41;23.90;99.90
24146;DHT22;12308;50.948;4.706;2023-07-29T09:06:07;23.90;99.90
24146;DHT22;12308;50.948;4.706;2023-07-29T09:08:33;23.80;99.90
24146;DHT22;12308;50.948;4.706;2023-07-29T09:11:00;23.70;99.90
24146;DHT22;12308;50.948;4.706;2023-07-29T09:13:26;23.60;99.90
24146;DHT22;12308;50.948;4.706;2023-07-29T09:15:56;23.80;99.90
24146;DHT22;12308;50.948;4.706;2023-07-29T09:18:22;24.20;99.90
24146;DHT22;12308;50.948;4.706;2023-07-29T09:20:49;24.40;99.90
24146;DHT22;12308;50.948;4.706;2023-07-29T09:23:15;24.40;99.90
24146;DHT22;12308;50.948;4.706;2023-07-29T09:25:41;24.50;99.90
24146;DHT22;12308;50.948;4.706;2023-07-29T09:28:14;24.60;99.90
24146;DHT22;12308;50.948;4.706;2023-07-29T09:30:41;24.70;99.90
24146;DHT22;12308;50.948;4.706;2023-07-29T09:33:10;25.00;99.90
24146;DHT22;12308;50.948;4.706;2023-07-29T09:35:37;25.10;99.90
24146;DHT22;12308;50.948;4.706;2023-07-29T09:38:06;25.40;99.90
24146;DHT22;12308;50.948;4.706;2023-07-29T09:40:40;25.30;99.90
24146;DHT22;12308;50.948;4.706;2023-07-29T09:43:08;25.10;99.90
24146;DHT22;12308;50.948;4.706;2023-07-29T09:45:34;25.30;99.90
24146;DHT22;12308;50.948;4.706;2023-07-29T09:48:02;25.30;99.90
24146;DHT22;12308;50.948;4.706;2023-07-29T09:50:28;25.20;99.90
24146;DHT22;12308;50.948;4.706;2023-07-29T09:52:56;25.20;99.90
24146;DHT22;12308;50.948;4.706;2023-07-29T09:55:25;25.00;99.90
24146;DHT22;12308;50.948;4.706;2023-07-29T09:57:58;24.80;99.90
24146;DHT22;12308;50.948;4.706;2023-07-29T10:00:28;24.90;99.90
24146;DHT22;12308;50.948;4.706;2023-07-29T10:02:54;25.10;99.90
24146;DHT22;12308;50.948;4.706;2023-07-29T10:05:22;25.00;99.90
24146;DHT22;12308;50.948;4.706;2023-07-29T10:07:49;24.90;99.90
24146;DHT22;12308;50.948;4.706;2023-07-29T10:10:15;24.50;99.90
24146;DHT22;12308;50.948;4.706;2023-07-29T10:12:42;24.20;99.90
24146;DHT22;12308;50.948;4.706;2023-07-29T10:15:08;23.90;99.90
24146;DHT22;12308;50.948;4.706;2023-07-29T10:17:35;23.70;99.90
24146;DHT22;12308;50.948;4.706;2023-07-29T10:20:04;24.10;99.90
24146;DHT22;12308;50.948;4.706;2023-07-29T10:25:07;25.40;99.90
24146;DHT22;12308;50.948;4.706;2023-07-29T10:27:56;25.90;99.90
24146;DHT22;12308;50.948;4.706;2023-07-29T10:30:28;26.20;99.90
24146;DHT22;12308;50.948;4.706;2023-07-29T10:32:57;26.40;99.90
24146;DHT22;12308;50.948;4.706;2023-07-29T10:35:24;26.10;99.90
24146;DHT22;12308;50.948;4.706;2023-07-29T10:37:51;25.90;99.90
24146;DHT22;12308;50.948;4.706;2023-07-29T10:40:18;25.80;99.90
24146;DHT22;12308;50.948;4.706;2023-07-29T10:45:27;25.80;99.90
24146;DHT22;12308;50.948;4.706;2023-07-29T10:48:11;25.60;99.90
24146;DHT22;12308;50.948;4.706;2023-07-29T10:50:37;25.80;99.90
24146;DHT22;12308;50.948;4.706;2023-07-29T10:53:03;26.00;99.90
24146;DHT22;12308;50.948;4.706;2023-07-29T10:55:33;26.00;99.90
24146;DHT22;12308;50.948;4.706;2023-07-29T10:58:08;25.40;99.90
24146;DHT22;12308;50.948;4.706;2023-07-29T11:00:34;25.00;99.90
24146;DHT22;12308;50.948;4.706;2023-07-29T11:03:02;24.60;99.90
24146;DHT22;12308;50.948;4.706;2023-07-29T11:05:46;24.20;99.90
24146;DHT22;12308;50.948;4.706;2023-07-29T11:08:21;23.80;99.90
24146;DHT22;12308;50.948;4.706;2023-07-29T11:11:07;23.60;99.90
24146;DHT22;12308;50.948;4.706;2023-07-29T11:13:35;23.00;99.90
24146;DHT22;12308;50.948;4.706;2023-07-29T11:16:02;22.70;99.90
24146;DHT22;12308;50.948;4.706;2023-07-29T11:18:30;22.50;99.90
24146;DHT22;12308;50.948;4.706;2023-07-29T11:20:57;22.70;99.90
24146;DHT22;12308;50.948;4.706;2023-07-29T11:23:30;22.80;99.90
24146;DHT22;12308;50.948;4.706;2023-07-29T11:25:56;23.20;99.90
24146;DHT22;12308;50.948;4.706;2023-07-29T11:28:22;23.70;99.90
24146;DHT22;12308;50.948;4.706;2023-07-29T11:30:49;24.00;99.90
24146;DHT22;12308;50.948;4.706;2023-07-29T11:33:19;24.10;99.90
24146;DHT22;12308;50.948;4.706;2023-07-29T11:35:45;24.20;99.90
24146;DHT22;12308;50.948;4.706;2023-07-29T11:38:15;24.00;99.90
24146;DHT22;12308;50.948;4.706;2023-07-29T11:40:41;24.10;99.90
24146;DHT22;12308;50.948;4.706;2023-07-29T11:43:07;23.80;99.90
24146;DHT22;12308;50.948;4.706;2023-07-29T11:45:33;23.90;99.90
24146;DHT22;12308;50.948;4.706;2023-07-29T11:48:01;24.20;99.90
24146;DHT22;12308;50.948;4.706;2023-07-29T11:50:27;24.40;99.90
24146;DHT22;12308;50.948;4.706;2023-07-29T11:52:53;24.80;99.90
24146;DHT22;12308;50.948;4.706;2023-07-29T11:55:19;25.50;99.90
24146;DHT22;12308;50.948;4.706;2023-07-29T11:57:50;25.80;99.90
24146;DHT22;12308;50.948;4.706;2023-07-29T12:00:16;26.00;99.90
24146;DHT22;12308;50.948;4.706;2023-07-29T12:02:44;25.90;99.90
24146;DHT22;12308;50.948;4.706;2023-07-29T12:05:12;25.60;99.90
24146;DHT22;12308;50.948;4.706;2023-07-29T12:07:39;25.40;99.90
24146;DHT22;12308;50.948;4.706;2023-07-29T12:10:05;25.20;99.90
24146;DHT22;12308;50.948;4.706;2023-07-29T12:12:31;25.10;99.90
24146;DHT22;12308;50.948;4.706;2023-07-29T12:14:57;25.10;99.90
24146;DHT22;12308;50.948;4.706;2023-07-29T12:17:23;25.30;99.90
24146;DHT22;12308;50.948;4.706;2023-07-29T12:19:49;25.00;99.90
24146;DHT22;12308;50.948;4.706;2023-07-29T12:22:19;25.10;99.90
24146;DHT22;12308;50.948;4.706;2023-07-29T12:24:45;25.20;99.90
24146;DHT22;12308;50.948;4.706;2023-07-29T12:27:12;25.40;99.90
24146;DHT22;12308;50.948;4.706;2023-07-29T12:29:44;25.20;99.90
24146;DHT22;12308;50.948;4.706;2023-07-29T12:32:12;25.00;99.90
24146;DHT22;12308;50.948;4.706;2023-07-29T12:34:39;24.30;99.90
24146;DHT22;12308;50.948;4.706;2023-07-29T12:37:05;23.50;99.90
24146;DHT22;12308;50.948;4.706;2023-07-29T12:39:39;22.60;99.90
24146;DHT22;12308;50.948;4.706;2023-07-29T12:42:07;21.90;99.90
24146;DHT22;12308;50.948;4.706;2023-07-29T12:44:34;21.30;99.90
24146;DHT22;12308;50.948;4.706;2023-07-29T12:47:01;20.70;99.90
24146;DHT22;12308;50.948;4.706;2023-07-29T12:49:28;20.10;99.90
24146;DHT22;12308;50.948;4.706;2023-07-29T12:51:55;19.90;99.90
24146;DHT22;12308;50.948;4.706;2023-07-29T12:54:21;20.00;99.90
24146;DHT22;12308;50.948;4.706;2023-07-29T12:56:47;20.30;99.90
24146;DHT22;12308;50.948;4.706;2023-07-29T12:59:13;20.40;99.90
24146;DHT22;12308;50.948;4.706;2023-07-29T13:01:38;20.70;99.90
24146;DHT22;12308;50.948;4.706;2023-07-29T13:04:04;21.00;99.90
24146;DHT22;12308;50.948;4.706;2023-07-29T13:06:30;21.30;99.90
24146;DHT22;12308;50.948;4.706;2023-07-29T13:08:56;21.70;99.90
24146;DHT22;12308;50.948;4.706;2023-07-29T13:11:22;22.10;99.90
24146;DHT22;12308;50.948;4.706;2023-07-29T13:13:47;22.30;99.90
24146;DHT22;12308;50.948;4.706;2023-07-29T13:16:13;22.80;99.90
24146;DHT22;12308;50.948;4.706;2023-07-29T13:18:39;23.00;99.90
24146;DHT22;12308;50.948;4.706;2023-07-29T13:21:05;23.30;99.90
24146;DHT22;12308;50.948;4.706;2023-07-29T13:23:30;23.50;99.90
24146;DHT22;12308;50.948;4.706;2023-07-29T13:25:57;23.50;99.90
24146;DHT22;12308;50.948;4.706;2023-07-29T13:28:23;23.40;99.90
24146;DHT22;12308;50.948;4.706;2023-07-29T13:30:49;23.80;99.90
24146;DHT22;12308;50.948;4.706;2023-07-29T13:33:14;24.10;99.90
24146;DHT22;12308;50.948;4.706;2023-07-29T13:35:40;24.40;99.90
24146;DHT22;12308;50.948;4.706;2023-07-29T13:38:06;24.40;99.90
24146;DHT22;12308;50.948;4.706;2023-07-29T13:40:31;24.30;99.90
24146;DHT22;12308;50.948;4.706;2023-07-29T13:42:57;24.30;99.90
24146;DHT22;12308;50.948;4.706;2023-07-29T13:45:23;24.70;99.90
24146;DHT22;12308;50.948;4.706;2023-07-29T13:47:49;24.80;99.90
24146;DHT22;12308;50.948;4.706;2023-07-29T13:50:16;24.80;99.90
24146;DHT22;12308;50.948;4.706;2023-07-29T13:52:42;24.80;99.90
24146;DHT22;12308;50.948;4.706;2023-07-29T13:55:08;24.80;99.90
24146;DHT22;12308;50.948;4.706;2023-07-29T13:57:33;24.60;99.90
24146;DHT22;12308;50.948;4.706;2023-07-29T13:59:59;24.50;99.90
24146;DHT22;12308;50.948;4.706;2023-07-29T14:02:25;24.40;99.90
24146;DHT22;12308;50.948;4.706;2023-07-29T14:04:56;24.60;99.90
24146;DHT22;12308;50.948;4.706;2023-07-29T14:07:22;24.70;99.90
24146;DHT22;12308;50.948;4.706;2023-07-29T14:09:48;24.70;99.90
24146;DHT22;12308;50.948;4.706;2023-07-29T14:12:13;24.80;99.90
24146;DHT22;12308;50.948;4.706;2023-07-29T14:14:41;25.00;99.90
24146;DHT22;12308;50.948;4.706;2023-07-29T14:17:07;25.10;99.90
24146;DHT22;12308;50.948;4.706;2023-07-29T14:19:37;24.90;99.90
24146;DHT22;12308;50.948;4.706;2023-07-29T14:22:03;25.00;99.90
24146;DHT22;12308;50.948;4.706;2023-07-29T14:24:29;25.10;99.90
24146;DHT22;12308;50.948;4.706;2023-07-29T14:26:54;25.30;99.90
24146;DHT22;12308;50.948;4.706;2023-07-29T14:29:20;25.00;99.90
24146;DHT22;12308;50.948;4.706;2023-07-29T14:31:46;25.10;99.90
24146;DHT22;12308;50.948;4.706;2023-07-29T14:34:11;24.90;99.90
24146;DHT22;12308;50.948;4.706;2023-07-29T14:36:37;24.90;99.90
24146;DHT22;12308;50.948;4.706;2023-07-29T14:39:03;24.80;99.90
24146;DHT22;12308;50.948;4.706;2023-07-29T14:41:29;24.80;99.90
24146;DHT22;12308;50.948;4.706;2023-07-29T14:43:55;24.70;99.90
24146;DHT22;12308;50.948;4.706;2023-07-29T14:46:21;24.70;99.90
24146;DHT22;12308;50.948;4.706;2023-07-29T14:48:46;24.80;99.90
24146;DHT22;12308;50.948;4.706;2023-07-29T14:51:13;24.70;99.90
24146;DHT22;12308;50.948;4.706;2023-07-29T14:53:39;24.70;99.90
24146;DHT22;12308;50.948;4.706;2023-07-29T14:56:04;24.80;99.90
24146;DHT22;12308;50.948;4.706;2023-07-29T14:58:30;24.70;99.90
24146;DHT22;12308;50.948;4.706;2023-07-29T15:00:56;24.60;99.90
24146;DHT22;12308;50.948;4.706;2023-07-29T15:03:23;24.70;99.90
24146;DHT22;12308;50.948;4.706;2023-07-29T15:05:49;24.50;99.90
24146;DHT22;12308;50.948;4.706;2023-07-29T15:08:15;24.50;99.90
24146;DHT22;12308;50.948;4.706;2023-07-29T15:10:40;24.70;99.90
24146;DHT22;12308;50.948;4.706;2023-07-29T15:13:10;24.70;99.90
24146;DHT22;12308;50.948;4.706;2023-07-29T15:15:35;24.80;99.90
24146;DHT22;12308;50.948;4.706;2023-07-29T15:18:01;25.10;99.90
24146;DHT22;12308;50.948;4.706;2023-07-29T15:20:27;25.20;99.90
24146;DHT22;12308;50.948;4.706;2023-07-29T15:22:52;25.30;99.90
24146;DHT22;12308;50.948;4.706;2023-07-29T15:25:18;25.30;99.90
24146;DHT22;12308;50.948;4.706;2023-07-29T15:27:44;25.10;99.90
24146;DHT22;12308;50.948;4.706;2023-07-29T15:30:09;25.10;99.90
24146;DHT22;12308;50.948;4.706;2023-07-29T15:32:37;25.10;99.90
24146;DHT22;12308;50.948;4.706;2023-07-29T15:35:03;24.90;99.90
24146;DHT22;12308;50.948;4.706;2023-07-29T15:37:29;24.90;99.90
24146;DHT22;12308;50.948;4.706;2023-07-29T15:39:54;25.10;99.90
24146;DHT22;12308;50.948;4.706;2023-07-29T15:42:20;25.30;99.90